Time;durP1;ratioP1;P1;durP2;ratioP2;P2;SDS_P1;SDS_P2;PMS_P1;PMS_P2;Temp;Humidity;BMP_temperature;BMP_pressure;BME280_temperature;BME280_humidity;BME280_pressure;Samples;Min_cycle;Max_cycle;Signal;HPM_P1;HPM_P2
2023/06/20 00:01:48;;;;;;;7.18;4.30;;;;;;;;;;5018443;28;20025;-78
2023/06/20 00:04:13;;;;;;;5.95;4.00;;;;;;;;;;5034481;28;20022;-78
2023/06/20 00:06:38;;;;;;;5.50;3.95;;;;;;;;;;5014395;28;20029;-77
2023/06/20 00:09:04;;;;;;;6.65;4.00;;;;;;;;;;5010643;28;20036;-78
2023/06/20 00:11:29;;;;;;;6.15;4.07;;;;;;;;;;5032346;28;20474;-78
2023/06/20 00:13:54;;;;;;;7.47;4.22;;;;;;;;;;5015656;28;20026;-79
2023/06/20 00:16:20;;;;;;;5.88;4.20;;;;;;;;;;5013002;28;20029;-78
2023/06/20 00:18:53;;;;;;;7.45;4.03;;;;;;;;;;5019394;28;20029;-79
2023/06/20 00:21:25;;;;;;;6.03;4.05;;;;;;;;;;5014513;28;20033;-78
2023/06/20 00:23:51;;;;;;;5.47;3.73;;;;;;;;;;5020099;28;20032;-79
2023/06/20 00:26:17;;;;;;;5.90;3.83;;;;;;;;;;5030222;28;20029;-79
2023/06/20 00:28:42;;;;;;;5.22;3.78;;;;;;;;;;5014481;28;20135;-78
2023/06/20 00:31:08;;;;;;;6.65;3.95;;;;;;;;;;5036415;28;20075;-78
2023/06/20 00:33:36;;;;;;;7.78;3.85;;;;;;;;;;5030798;28;20044;-79
2023/06/20 00:36:02;;;;;;;5.35;3.70;;;;;;;;;;5029534;28;20053;-79
2023/06/20 00:38:29;;;;;;;6.05;3.80;;;;;;;;;;5012595;28;20477;-79
2023/06/20 00:40:55;;;;;;;6.72;3.55;;;;;;;;;;5016961;28;20026;-78
2023/06/20 00:43:20;;;;;;;6.78;4.13;;;;;;;;;;5013621;28;20083;-78
2023/06/20 00:45:45;;;;;;;7.95;3.97;;;;;;;;;;5031779;28;20029;-78
2023/06/20 00:48:12;;;;;;;7.00;3.80;;;;;;;;;;5020474;28;20477;-78
2023/06/20 00:50:37;;;;;;;6.15;4.07;;;;;;;;;;5029546;28;20391;-78
2023/06/20 00:53:07;;;;;;;5.78;3.75;;;;;;;;;;5022234;28;20030;-78
2023/06/20 00:55:35;;;;;;;6.28;3.90;;;;;;;;;;5034485;28;20057;-78
2023/06/20 00:58:02;;;;;;;5.68;3.50;;;;;;;;;;5014700;28;20469;-79
2023/06/20 01:00:32;;;;;;;6.10;4.00;;;;;;;;;;5017494;28;20034;-78
2023/06/20 01:03:01;;;;;;;8.55;4.13;;;;;;;;;;5035769;28;20022;-77
2023/06/20 01:05:28;;;;;;;5.72;3.67;;;;;;;;;;5020432;28;20817;-78
2023/06/20 01:08:21;;;;;;;5.80;3.80;;;;;;;;;;5008898;28;20025;-78
2023/06/20 01:11:04;;;;;;;8.32;4.13;;;;;;;;;;5030353;28;20142;-79
2023/06/20 01:13:35;;;;;;;5.22;3.63;;;;;;;;;;5024530;28;20029;-78
2023/06/20 01:16:16;;;;;;;6.53;3.92;;;;;;;;;;5031366;28;20393;-77
2023/06/20 01:19:13;;;;;;;8.40;3.92;;;;;;;;;;5014657;28;20029;-79
2023/06/20 01:21:46;;;;;;;5.65;3.90;;;;;;;;;;5013278;28;20101;-79
2023/06/20 01:24:29;;;;;;;7.05;4.90;;;;;;;;;;5030551;28;20057;-78
2023/06/20 01:27:09;;;;;;;5.72;3.90;;;;;;;;;;5017508;28;20084;-78
2023/06/20 01:29:39;;;;;;;5.30;3.75;;;;;;;;;;5031415;28;20021;-78
2023/06/20 01:32:09;;;;;;;6.15;4.10;;;;;;;;;;5012546;28;20059;-78
2023/06/20 01:34:39;;;;;;;5.53;3.80;;;;;;;;;;5016773;28;20121;-79
2023/06/20 01:37:11;;;;;;;7.65;4.15;;;;;;;;;;5028590;28;20440;-78
2023/06/20 01:39:42;;;;;;;5.95;4.00;;;;;;;;;;5011987;28;20478;-79
2023/06/20 01:42:08;;;;;;;6.07;3.90;;;;;;;;;;5014078;28;20045;-78
2023/06/20 01:44:35;;;;;;;5.38;3.60;;;;;;;;;;5032634;28;20481;-78
2023/06/20 01:47:03;;;;;;;6.72;3.83;;;;;;;;;;5012141;28;20040;-78
2023/06/20 01:49:30;;;;;;;6.07;4.15;;;;;;;;;;5026672;28;20032;-78
2023/06/20 01:51:56;;;;;;;6.60;4.10;;;;;;;;;;5017078;28;20465;-78
2023/06/20 01:54:29;;;;;;;6.30;4.55;;;;;;;;;;5021375;28;20018;-78
2023/06/20 01:56:57;;;;;;;6.18;4.22;;;;;;;;;;5022423;28;20025;-77
2023/06/20 01:59:24;;;;;;;6.72;4.15;;;;;;;;;;5020453;28;20537;-78
2023/06/20 02:01:52;;;;;;;6.20;4.32;;;;;;;;;;5015446;28;20029;-78
2023/06/20 02:04:18;;;;;;;6.68;4.25;;;;;;;;;;5036267;28;20052;-78
2023/06/20 02:06:45;;;;;;;7.05;4.22;;;;;;;;;;5024830;28;20021;-79
2023/06/20 02:09:13;;;;;;;6.30;4.35;;;;;;;;;;5016273;28;20052;-79
2023/06/20 02:11:39;;;;;;;8.13;4.75;;;;;;;;;;5035531;28;20022;-79
2023/06/20 02:14:06;;;;;;;6.65;4.80;;;;;;;;;;5034982;28;20066;-78
2023/06/20 02:16:34;;;;;;;7.55;4.60;;;;;;;;;;5034841;28;20806;-78
2023/06/20 02:19:00;;;;;;;6.78;4.15;;;;;;;;;;5035302;28;20120;-78
2023/06/20 02:21:28;;;;;;;8.45;4.45;;;;;;;;;;5035991;28;20512;-78
2023/06/20 02:23:55;;;;;;;8.18;5.15;;;;;;;;;;5015686;28;20033;-78
2023/06/20 02:26:26;;;;;;;6.53;4.47;;;;;;;;;;5020265;28;20036;-79
2023/06/20 02:28:57;;;;;;;5.43;4.03;;;;;;;;;;5022598;28;20103;-78
2023/06/20 02:31:26;;;;;;;6.32;4.20;;;;;;;;;;5013116;28;20033;-79
2023/06/20 02:33:56;;;;;;;6.90;4.47;;;;;;;;;;5015201;28;20484;-78
2023/06/20 02:36:27;;;;;;;9.77;5.35;;;;;;;;;;5036516;28;20017;-78
2023/06/20 02:38:55;;;;;;;6.30;4.20;;;;;;;;;;5020792;28;20481;-78
2023/06/20 02:41:20;;;;;;;7.47;4.18;;;;;;;;;;5018793;28;20112;-79
2023/06/20 02:43:46;;;;;;;5.93;4.07;;;;;;;;;;5036536;28;20068;-78
2023/06/20 02:46:48;;;;;;;6.53;4.18;;;;;;;;;;5035981;28;20385;-78
2023/06/20 02:49:35;;;;;;;7.45;4.78;;;;;;;;;;5012167;28;20492;-78
2023/06/20 02:52:20;;;;;;;6.68;4.57;;;;;;;;;;5034108;28;20037;-78
2023/06/20 02:54:58;;;;;;;6.32;4.50;;;;;;;;;;5024378;28;20022;-79
2023/06/20 02:57:28;;;;;;;8.88;5.15;;;;;;;;;;5024723;28;20029;-78
2023/06/20 03:00:00;;;;;;;7.40;4.70;;;;;;;;;;5037819;28;20397;-79
2023/06/20 03:02:29;;;;;;;;;;;;;;;;;;5020232;28;20021;-79
2023/06/20 03:04:59;;;;;;;7.07;4.78;;;;;;;;;;5016137;28;19989;-78
2023/06/20 03:07:26;;;;;;;6.82;4.95;;;;;;;;;;5021312;28;20033;-78
2023/06/20 03:09:54;;;;;;;9.10;5.05;;;;;;;;;;5017281;28;20025;-78
2023/06/20 03:12:20;;;;;;;7.22;4.80;;;;;;;;;;5032713;28;20367;-78
2023/06/20 03:14:46;;;;;;;7.18;4.55;;;;;;;;;;5034783;28;20029;-78
2023/06/20 03:17:13;;;;;;;8.82;5.25;;;;;;;;;;5017541;28;20021;-78
2023/06/20 03:19:38;;;;;;;7.35;5.20;;;;;;;;;;5016312;28;20121;-79
2023/06/20 03:22:03;;;;;;;6.20;4.80;;;;;;;;;;5020433;28;20498;-78
2023/06/20 03:24:29;;;;;;;6.72;5.03;;;;;;;;;;5034674;28;20017;-79
2023/06/20 03:26:54;;;;;;;8.13;5.40;;;;;;;;;;5035164;28;20021;-79
2023/06/20 03:29:19;;;;;;;8.00;4.90;;;;;;;;;;5016225;28;20030;-78
2023/06/20 03:31:45;;;;;;;7.40;5.28;;;;;;;;;;5035387;28;20084;-78
2023/06/20 03:34:10;;;;;;;7.05;5.50;;;;;;;;;;5033178;28;20466;-78
2023/06/20 03:36:36;;;;;;;8.48;6.43;;;;;;;;;;5021776;28;20083;-78
2023/06/20 03:39:02;;;;;;;9.80;5.05;;;;;;;;;;5037673;28;20112;-78
2023/06/20 03:41:27;;;;;;;8.20;5.80;;;;;;;;;;5027001;28;20108;-78
2023/06/20 03:43:52;;;;;;;8.52;5.30;;;;;;;;;;5012122;28;20112;-78
2023/06/20 03:46:18;;;;;;;8.43;5.20;;;;;;;;;;5021279;28;20026;-77
2023/06/20 03:48:43;;;;;;;7.57;5.20;;;;;;;;;;5008903;28;20478;-78
2023/06/20 03:51:08;;;;;;;7.70;5.38;;;;;;;;;;5034861;28;20561;-79
2023/06/20 03:53:34;;;;;;;7.05;5.00;;;;;;;;;;5034913;28;20025;-78
2023/06/20 03:55:59;;;;;;;6.90;4.80;;;;;;;;;;5033292;28;20116;-78
2023/06/20 03:58:25;;;;;;;7.40;4.90;;;;;;;;;;5013647;28;20074;-78
2023/06/20 04:00:50;;;;;;;8.13;5.55;;;;;;;;;;5019438;28;20029;-79
2023/06/20 04:03:16;;;;;;;8.57;6.10;;;;;;;;;;5011241;28;20037;-78
2023/06/20 04:05:41;;;;;;;7.25;5.00;;;;;;;;;;5014228;28;20025;-78
2023/06/20 04:08:06;;;;;;;8.55;4.95;;;;;;;;;;5017930;28;20057;-78
2023/06/20 04:10:32;;;;;;;7.40;5.07;;;;;;;;;;5032947;28;20029;-78
2023/06/20 04:12:57;;;;;;;7.07;5.25;;;;;;;;;;5032521;28;20028;-78
2023/06/20 04:15:22;;;;;;;8.32;5.30;;;;;;;;;;5013264;28;20086;-78
2023/06/20 04:17:48;;;;;;;7.50;4.88;;;;;;;;;;5016194;28;20492;-78
2023/06/20 04:20:13;;;;;;;7.38;5.20;;;;;;;;;;5033452;28;20117;-78
2023/06/20 04:22:45;;;;;;;8.60;5.88;;;;;;;;;;5026912;28;20028;-78
2023/06/20 04:25:15;;;;;;;8.43;5.53;;;;;;;;;;5025113;28;20080;-78
2023/06/20 04:27:41;;;;;;;7.65;5.32;;;;;;;;;;5033900;28;20041;-78
2023/06/20 04:30:07;;;;;;;7.07;4.97;;;;;;;;;;5021783;28;20029;-78
2023/06/20 04:32:33;;;;;;;9.07;5.53;;;;;;;;;;5012251;28;20116;-78
2023/06/20 04:34:58;;;;;;;7.18;4.88;;;;;;;;;;5028762;28;20021;-77
2023/06/20 04:37:23;;;;;;;7.63;5.75;;;;;;;;;;5017328;28;20144;-78
2023/06/20 04:39:49;;;;;;;8.48;5.55;;;;;;;;;;5019118;28;20064;-78
2023/06/20 04:42:15;;;;;;;7.53;5.63;;;;;;;;;;5018399;28;20104;-77
2023/06/20 04:44:40;;;;;;;10.75;6.00;;;;;;;;;;5018872;28;20030;-78
2023/06/20 04:47:06;;;;;;;7.50;6.13;;;;;;;;;;5030873;28;20436;-78
2023/06/20 04:49:31;;;;;;;7.95;5.78;;;;;;;;;;5008109;28;20080;-77
2023/06/20 04:51:59;;;;;;;8.50;5.80;;;;;;;;;;5015281;28;20029;-78
2023/06/20 04:54:25;;;;;;;8.07;5.63;;;;;;;;;;5031963;28;20032;-78
2023/06/20 04:56:50;;;;;;;9.02;6.35;;;;;;;;;;5032963;28;20037;-78
2023/06/20 04:59:16;;;;;;;10.27;6.80;;;;;;;;;;5017308;28;20030;-78
2023/06/20 05:01:41;;;;;;;8.73;6.00;;;;;;;;;;5032435;28;20032;-78
2023/06/20 05:04:06;;;;;;;8.35;5.72;;;;;;;;;;5032758;28;20489;-78
2023/06/20 05:06:32;;;;;;;8.60;6.57;;;;;;;;;;5024593;28;20037;-78
2023/06/20 05:08:57;;;;;;;10.00;6.50;;;;;;;;;;5029702;28;20026;-78
2023/06/20 05:11:23;;;;;;;7.57;6.78;;;;;;;;;;5033158;28;20112;-78
2023/06/20 05:13:48;;;;;;;9.05;6.43;;;;;;;;;;5040047;28;20028;-78
2023/06/20 05:16:13;;;;;;;8.82;6.28;;;;;;;;;;5014783;28;20492;-78
2023/06/20 05:18:39;;;;;;;9.90;6.95;;;;;;;;;;5019637;28;20024;-78
2023/06/20 05:21:04;;;;;;;10.88;7.00;;;;;;;;;;5011832;28;20025;-78
2023/06/20 05:23:30;;;;;;;9.13;6.30;;;;;;;;;;5029454;28;20509;-78
2023/06/20 05:25:55;;;;;;;12.63;8.25;;;;;;;;;;5020499;28;20425;-78
2023/06/20 05:28:21;;;;;;;11.18;7.38;;;;;;;;;;5015276;28;20035;-78
2023/06/20 05:30:46;;;;;;;10.32;6.97;;;;;;;;;;5023199;28;20056;-78
2023/06/20 05:33:12;;;;;;;9.23;7.72;;;;;;;;;;5023497;28;20029;-77
2023/06/20 05:35:37;;;;;;;10.48;8.68;;;;;;;;;;5013010;28;20037;-78
2023/06/20 05:38:03;;;;;;;11.30;8.10;;;;;;;;;;5013837;28;20029;-78
2023/06/20 05:40:29;;;;;;;11.45;8.50;;;;;;;;;;5023312;28;20024;-78
2023/06/20 05:42:55;;;;;;;13.13;8.40;;;;;;;;;;5029204;28;20029;-78
2023/06/20 05:45:20;;;;;;;10.88;8.98;;;;;;;;;;5025210;28;20436;-79
2023/06/20 05:47:45;;;;;;;13.00;8.38;;;;;;;;;;5036014;28;20405;-77
2023/06/20 05:50:11;;;;;;;10.15;8.30;;;;;;;;;;5032424;28;20029;-78
2023/06/20 05:52:36;;;;;;;12.45;8.95;;;;;;;;;;5029804;28;20058;-78
2023/06/20 05:55:03;;;;;;;10.63;8.40;;;;;;;;;;5019399;28;20025;-77
2023/06/20 05:57:28;;;;;;;11.68;9.32;;;;;;;;;;5014604;28;20021;-78
2023/06/20 05:59:53;;;;;;;11.25;8.95;;;;;;;;;;5032298;28;20108;-78
2023/06/20 06:02:21;;;;;;;12.63;9.88;;;;;;;;;;5017502;28;20035;-78
2023/06/20 06:04:47;;;;;;;13.45;9.25;;;;;;;;;;5018639;28;20095;-78
2023/06/20 06:07:12;;;;;;;15.90;9.57;;;;;;;;;;5017192;28;20152;-78
2023/06/20 06:09:38;;;;;;;13.45;9.90;;;;;;;;;;5015225;28;20124;-78
2023/06/20 06:12:03;;;;;;;11.18;9.48;;;;;;;;;;5031370;28;20040;-77
2023/06/20 06:14:29;;;;;;;11.40;9.50;;;;;;;;;;5017200;28;20033;-78
2023/06/20 06:16:55;;;;;;;12.88;9.60;;;;;;;;;;5035294;28;20017;-77
2023/06/20 06:19:20;;;;;;;10.85;8.82;;;;;;;;;;5013258;28;20037;-78
2023/06/20 06:21:47;;;;;;;12.45;9.98;;;;;;;;;;5014248;28;20435;-78
2023/06/20 06:24:13;;;;;;;13.73;9.77;;;;;;;;;;5032616;28;20570;-77
2023/06/20 06:26:38;;;;;;;11.18;9.60;;;;;;;;;;5031090;28;20104;-77
2023/06/20 06:29:06;;;;;;;13.65;9.75;;;;;;;;;;5032195;28;20017;-78
2023/06/20 06:31:34;;;;;;;11.65;8.82;;;;;;;;;;5010591;28;20082;-78
2023/06/20 06:34:01;;;;;;;13.07;9.82;;;;;;;;;;5034025;28;20021;-78
2023/06/20 06:36:28;;;;;;;11.88;9.18;;;;;;;;;;5018315;28;20070;-78
2023/06/20 06:38:54;;;;;;;11.38;9.18;;;;;;;;;;5035396;28;20037;-78
2023/06/20 06:41:21;;;;;;;12.27;8.45;;;;;;;;;;5031066;28;20025;-79
2023/06/20 06:43:46;;;;;;;12.80;9.50;;;;;;;;;;5020865;28;20025;-78
2023/06/20 06:46:12;;;;;;;13.65;10.00;;;;;;;;;;5035628;28;20152;-76
2023/06/20 06:48:37;;;;;;;14.45;8.75;;;;;;;;;;5031127;28;20040;-78
2023/06/20 06:51:03;;;;;;;10.13;8.27;;;;;;;;;;5030733;28;20035;-78
2023/06/20 06:53:29;;;;;;;11.13;8.75;;;;;;;;;;5018177;28;20385;-78
2023/06/20 06:55:54;;;;;;;10.88;8.30;;;;;;;;;;5022994;28;20039;-78
2023/06/20 06:58:21;;;;;;;11.13;8.48;;;;;;;;;;5035936;28;20084;-78
2023/06/20 07:00:46;;;;;;;9.43;7.75;;;;;;;;;;5031328;28;20033;-78
2023/06/20 07:03:12;;;;;;;10.55;8.07;;;;;;;;;;5017018;28;20029;-78
2023/06/20 07:05:37;;;;;;;11.25;8.18;;;;;;;;;;5015402;28;20039;-78
2023/06/20 07:08:03;;;;;;;11.90;9.05;;;;;;;;;;5017555;28;20056;-77
2023/06/20 07:10:28;;;;;;;10.95;7.90;;;;;;;;;;5017402;28;20540;-78
2023/06/20 07:12:54;;;;;;;10.45;7.68;;;;;;;;;;5039157;28;20040;-77
2023/06/20 07:15:19;;;;;;;8.80;7.18;;;;;;;;;;5035001;28;20032;-78
2023/06/20 07:17:44;;;;;;;9.05;6.95;;;;;;;;;;5028357;28;20032;-78
2023/06/20 07:20:10;;;;;;;9.77;7.82;;;;;;;;;;5034439;28;20040;-78
2023/06/20 07:22:37;;;;;;;10.85;8.70;;;;;;;;;;5029752;28;20083;-78
2023/06/20 07:25:02;;;;;;;12.32;8.90;;;;;;;;;;5041779;28;20474;-78
2023/06/20 07:27:27;;;;;;;13.10;8.20;;;;;;;;;;5033348;28;20100;-77
2023/06/20 07:29:53;;;;;;;12.70;8.13;;;;;;;;;;5024028;28;20017;-78
2023/06/20 07:32:18;;;;;;;11.20;7.65;;;;;;;;;;5036217;28;20083;-78
2023/06/20 07:34:44;;;;;;;9.25;7.25;;;;;;;;;;5035287;28;20029;-78
2023/06/20 07:37:09;;;;;;;10.10;7.60;;;;;;;;;;5024143;28;20029;-78
2023/06/20 07:39:39;;;;;;;9.07;6.35;;;;;;;;;;5030752;28;20025;-77
2023/06/20 07:42:05;;;;;;;8.48;6.70;;;;;;;;;;5015594;28;20556;-78
2023/06/20 07:44:30;;;;;;;7.00;5.85;;;;;;;;;;5034362;28;20041;-77
2023/06/20 07:46:56;;;;;;;7.97;5.45;;;;;;;;;;5023705;28;20041;-78
2023/06/20 07:49:21;;;;;;;9.23;6.45;;;;;;;;;;5022987;28;20025;-77
2023/06/20 07:51:46;;;;;;;9.98;5.90;;;;;;;;;;5026250;28;20477;-77
2023/06/20 07:54:14;;;;;;;8.57;6.95;;;;;;;;;;5034535;28;20454;-78
2023/06/20 07:56:39;;;;;;;8.95;7.18;;;;;;;;;;5014574;28;20072;-77
2023/06/20 07:59:05;;;;;;;10.05;6.13;;;;;;;;;;5033076;28;20434;-77
2023/06/20 08:01:31;;;;;;;7.18;5.40;;;;;;;;;;5033650;28;20029;-77
2023/06/20 08:03:56;;;;;;;9.13;5.72;;;;;;;;;;5020034;28;20081;-77
2023/06/20 08:06:22;;;;;;;7.72;5.45;;;;;;;;;;5039591;28;20029;-77
2023/06/20 08:08:47;;;;;;;8.23;5.43;;;;;;;;;;5017257;28;20047;-77
2023/06/20 08:11:12;;;;;;;7.65;5.15;;;;;;;;;;5043244;28;20021;-76
2023/06/20 08:13:38;;;;;;;7.03;4.70;;;;;;;;;;5033105;28;20024;-77
2023/06/20 08:16:03;;;;;;;8.93;5.28;;;;;;;;;;5025649;28;20025;-77
2023/06/20 08:18:29;;;;;;;7.47;5.35;;;;;;;;;;5018616;28;20080;-77
2023/06/20 08:20:54;;;;;;;6.68;4.88;;;;;;;;;;5017120;28;20025;-77
2023/06/20 08:23:26;;;;;;;7.25;5.10;;;;;;;;;;5017915;28;20107;-77
2023/06/20 08:25:53;;;;;;;8.65;4.72;;;;;;;;;;5025944;28;20391;-77
2023/06/20 08:28:19;;;;;;;8.88;5.03;;;;;;;;;;5033447;28;20474;-77
2023/06/20 08:30:44;;;;;;;5.88;4.70;;;;;;;;;;5026200;28;20870;-77
2023/06/20 08:33:10;;;;;;;6.97;5.10;;;;;;;;;;5033143;28;20394;-77
2023/06/20 08:35:35;;;;;;;7.45;5.60;;;;;;;;;;5033262;28;20057;-77
2023/06/20 08:38:00;;;;;;;7.78;5.70;;;;;;;;;;5017913;28;20029;-77
2023/06/20 08:40:26;;;;;;;6.63;4.57;;;;;;;;;;5041726;28;20044;-77
2023/06/20 08:42:55;;;;;;;7.50;4.72;;;;;;;;;;5021728;28;20029;-77
2023/06/20 08:45:21;;;;;;;6.82;4.82;;;;;;;;;;5021426;28;20029;-77
2023/06/20 08:47:46;;;;;;;6.03;4.35;;;;;;;;;;5033153;28;20474;-77
2023/06/20 08:50:12;;;;;;;7.22;5.40;;;;;;;;;;5031423;28;20029;-77
2023/06/20 08:52:46;;;;;;;8.20;4.72;;;;;;;;;;5033233;28;20025;-77
2023/06/20 08:55:16;;;;;;;8.13;5.22;;;;;;;;;;5019124;28;20022;-77
2023/06/20 08:57:45;;;;;;;7.28;5.30;;;;;;;;;;5011155;28;20374;-77
2023/06/20 09:00:15;;;;;;;8.50;5.75;;;;;;;;;;5013279;28;20509;-77
2023/06/20 09:02:41;;;;;;;8.45;5.22;;;;;;;;;;5018702;28;20151;-77
2023/06/20 09:05:06;;;;;;;7.28;4.88;;;;;;;;;;5014261;28;20112;-77
2023/06/20 09:07:39;;;;;;;7.78;5.15;;;;;;;;;;5029581;28;20053;-77
2023/06/20 09:10:09;;;;;;;5.88;4.28;;;;;;;;;;5019098;28;20502;-77
2023/06/20 09:12:51;;;;;;;7.05;4.47;;;;;;;;;;5031871;28;20033;-77
2023/06/20 09:15:19;;;;;;;7.10;3.80;;;;;;;;;;5025900;28;20074;-77
2023/06/20 09:17:48;;;;;;;6.50;4.35;;;;;;;;;;5032768;28;20379;-77
2023/06/20 09:20:14;;;;;;;5.40;3.80;;;;;;;;;;5031823;28;20064;-77
2023/06/20 09:22:40;;;;;;;4.45;3.25;;;;;;;;;;5030878;28;20057;-77
2023/06/20 09:25:07;;;;;;;4.80;3.60;;;;;;;;;;5018157;28;20025;-77
2023/06/20 09:27:37;;;;;;;7.47;3.70;;;;;;;;;;5032543;28;20060;-77
2023/06/20 09:30:03;;;;;;;4.15;3.28;;;;;;;;;;5038508;28;20107;-77
2023/06/20 09:32:36;;;;;;;5.25;3.80;;;;;;;;;;5033035;28;20021;-77
2023/06/20 09:35:06;;;;;;;4.60;3.38;;;;;;;;;;5031181;28;20108;-77
2023/06/20 09:37:43;;;;;;;4.45;3.30;;;;;;;;;;5031800;28;20503;-77
2023/06/20 09:40:13;;;;;;;4.55;3.47;;;;;;;;;;5016502;28;20067;-76
2023/06/20 09:42:40;;;;;;;4.80;3.08;;;;;;;;;;5022005;28;20033;-76
2023/06/20 09:45:14;;;;;;;4.30;3.10;;;;;;;;;;5010561;28;20086;-76
2023/06/20 09:47:41;;;;;;;4.85;3.20;;;;;;;;;;5017002;28;20075;-76
2023/06/20 09:50:08;;;;;;;4.38;2.80;;;;;;;;;;5030063;28;20174;-76
2023/06/20 09:52:43;;;;;;;6.50;3.10;;;;;;;;;;5024872;28;20033;-76
2023/06/20 09:55:12;;;;;;;4.32;2.97;;;;;;;;;;5029157;28;20017;-76
2023/06/20 09:58:04;;;;;;;5.65;2.90;;;;;;;;;;5025711;28;20120;-76
2023/06/20 10:00:31;;;;;;;5.22;3.38;;;;;;;;;;5026529;28;20033;-76
2023/06/20 10:03:06;;;;;;;5.97;3.00;;;;;;;;;;5031068;28;20044;-76
2023/06/20 10:05:33;;;;;;;4.60;3.38;;;;;;;;;;5018372;28;20030;-76
2023/06/20 10:07:59;;;;;;;4.78;3.10;;;;;;;;;;5033923;28;20040;-76
2023/06/20 10:10:25;;;;;;;5.15;2.85;;;;;;;;;;5010172;28;20029;-76
2023/06/20 10:12:50;;;;;;;4.32;2.92;;;;;;;;;;5007322;28;20567;-76
2023/06/20 10:15:16;;;;;;;4.28;2.95;;;;;;;;;;5034875;28;20382;-76
2023/06/20 10:17:46;;;;;;;4.53;3.00;;;;;;;;;;5023073;28;20031;-76
2023/06/20 10:20:31;;;;;;;4.22;3.03;;;;;;;;;;5020804;28;20067;-76
2023/06/20 10:22:58;;;;;;;5.05;2.78;;;;;;;;;;5019639;28;20033;-76
2023/06/20 10:25:25;;;;;;;4.68;2.92;;;;;;;;;;5035254;28;20520;-76
2023/06/20 10:28:00;;;;;;;3.50;2.60;;;;;;;;;;5037265;28;20029;-76
2023/06/20 10:30:50;;;;;;;4.88;2.63;;;;;;;;;;5023168;28;20025;-76
2023/06/20 10:33:28;;;;;;;5.07;2.85;;;;;;;;;;5025764;28;20022;-76
2023/06/20 10:36:05;;;;;;;3.97;2.33;;;;;;;;;;5019851;28;20025;-76
2023/06/20 10:38:33;;;;;;;4.43;2.30;;;;;;;;;;5042822;28;20033;-77
2023/06/20 10:41:14;;;;;;;4.50;3.15;;;;;;;;;;5019974;28;20028;-77
2023/06/20 10:43:55;;;;;;;5.95;2.97;;;;;;;;;;5038235;28;20103;-77
2023/06/20 10:46:27;;;;;;;3.63;2.60;;;;;;;;;;5020349;28;20382;-77
2023/06/20 10:48:52;;;;;;;3.78;2.75;;;;;;;;;;5033085;28;20025;-77
2023/06/20 10:51:18;;;;;;;3.35;2.60;;;;;;;;;;5022529;28;20018;-77
2023/06/20 10:53:43;;;;;;;4.78;3.00;;;;;;;;;;5021120;28;20050;-77
2023/06/20 10:56:24;;;;;;;4.15;2.80;;;;;;;;;;5034314;28;20025;-77
2023/06/20 10:58:50;;;;;;;4.60;2.83;;;;;;;;;;5037162;28;20052;-77
2023/06/20 11:01:17;;;;;;;4.13;3.10;;;;;;;;;;5019704;28;20021;-77
2023/06/20 11:03:43;;;;;;;4.85;2.80;;;;;;;;;;5032356;28;20029;-77
2023/06/20 11:06:13;;;;;;;3.53;2.50;;;;;;;;;;5031933;28;20021;-77
2023/06/20 11:08:43;;;;;;;5.30;2.90;;;;;;;;;;5040386;28;20115;-77
2023/06/20 11:11:08;;;;;;;3.47;2.28;;;;;;;;;;5014879;28;20023;-77
2023/06/20 11:13:43;;;;;;;5.78;2.80;;;;;;;;;;5018887;28;20465;-77
2023/06/20 11:16:18;;;;;;;3.53;2.60;;;;;;;;;;5034116;28;20433;-76
2023/06/20 11:18:44;;;;;;;4.13;2.63;;;;;;;;;;5031016;28;20057;-77
2023/06/20 11:21:09;;;;;;;3.33;2.35;;;;;;;;;;5031463;28;20067;-77
2023/06/20 11:23:35;;;;;;;4.70;2.28;;;;;;;;;;5034673;28;20029;-77
2023/06/20 11:26:00;;;;;;;3.92;2.33;;;;;;;;;;5025331;28;20120;-76
2023/06/20 11:28:26;;;;;;;3.05;2.30;;;;;;;;;;5034770;28;20036;-77
2023/06/20 11:30:52;;;;;;;4.28;2.40;;;;;;;;;;5035046;28;20040;-77
2023/06/20 11:33:18;;;;;;;4.35;2.30;;;;;;;;;;5026814;28;20074;-77
2023/06/20 11:35:54;;;;;;;4.30;2.38;;;;;;;;;;5024410;28;20076;-77
2023/06/20 11:38:25;;;;;;;3.90;2.30;;;;;;;;;;5012517;28;20021;-77
2023/06/20 11:41:06;;;;;;;3.10;2.20;;;;;;;;;;5034622;28;20021;-77
2023/06/20 11:43:42;;;;;;;3.50;2.70;;;;;;;;;;5037542;28;20100;-76
2023/06/20 11:46:08;;;;;;;4.45;2.38;;;;;;;;;;5038523;28;20415;-77
2023/06/20 11:48:35;;;;;;;3.38;2.45;;;;;;;;;;5024252;28;20029;-77
2023/06/20 11:51:02;;;;;;;3.35;2.33;;;;;;;;;;5034510;28;20075;-77
2023/06/20 11:53:34;;;;;;;3.20;2.20;;;;;;;;;;5033808;28;20021;-77
2023/06/20 11:56:07;;;;;;;3.58;2.40;;;;;;;;;;5026962;28;20022;-77
2023/06/20 11:58:45;;;;;;;3.85;2.30;;;;;;;;;;5033194;28;20033;-77
2023/06/20 12:01:20;;;;;;;2.75;2.10;;;;;;;;;;5027514;28;20029;-76
2023/06/20 12:03:46;;;;;;;3.05;2.15;;;;;;;;;;5025100;28;20108;-77
2023/06/20 12:06:31;;;;;;;3.30;2.10;;;;;;;;;;5022672;28;20116;-77
2023/06/20 12:08:57;;;;;;;2.67;1.98;;;;;;;;;;5026754;28;20036;-77
2023/06/20 12:11:23;;;;;;;5.53;2.15;;;;;;;;;;5014412;28;20026;-77
2023/06/20 12:13:49;;;;;;;2.53;2.00;;;;;;;;;;5034295;28;20048;-77
2023/06/20 12:16:14;;;;;;;3.90;1.80;;;;;;;;;;5023354;28;20021;-76
2023/06/20 12:18:40;;;;;;;2.95;2.35;;;;;;;;;;5017339;28;20021;-77
2023/06/20 12:21:05;;;;;;;3.90;1.95;;;;;;;;;;5033580;28;20052;-77
2023/06/20 12:23:31;;;;;;;2.30;1.60;;;;;;;;;;5040981;28;20040;-77
2023/06/20 12:25:57;;;;;;;4.05;1.70;;;;;;;;;;5025154;28;20028;-77
2023/06/20 12:28:23;;;;;;;2.75;1.90;;;;;;;;;;5032024;28;20025;-77
2023/06/20 12:30:48;;;;;;;2.72;1.80;;;;;;;;;;5033782;28;20091;-77
2023/06/20 12:33:14;;;;;;;3.50;1.70;;;;;;;;;;5033544;28;20025;-77
2023/06/20 12:35:39;;;;;;;3.10;1.95;;;;;;;;;;5015535;28;20452;-76
2023/06/20 12:38:04;;;;;;;4.85;2.05;;;;;;;;;;5031585;28;20026;-76
2023/06/20 12:40:30;;;;;;;4.93;1.95;;;;;;;;;;5021834;28;20029;-76
2023/06/20 12:42:55;;;;;;;2.90;1.98;;;;;;;;;;5032555;28;20078;-76
2023/06/20 12:45:21;;;;;;;3.10;1.90;;;;;;;;;;5007744;28;20176;-76
2023/06/20 12:47:47;;;;;;;4.13;1.98;;;;;;;;;;5032262;28;20036;-76
2023/06/20 12:50:12;;;;;;;3.20;1.75;;;;;;;;;;5031038;28;20385;-76
2023/06/20 12:52:38;;;;;;;2.63;1.80;;;;;;;;;;5027949;28;20017;-76
2023/06/20 12:55:05;;;;;;;3.22;1.77;;;;;;;;;;5026450;28;20567;-76
2023/06/20 12:57:32;;;;;;;2.97;1.80;;;;;;;;;;5033591;28;20406;-76
2023/06/20 12:59:58;;;;;;;2.58;1.70;;;;;;;;;;5034349;28;20047;-76
2023/06/20 13:02:24;;;;;;;3.92;1.60;;;;;;;;;;5010448;28;20025;-75
2023/06/20 13:04:53;;;;;;;3.15;1.85;;;;;;;;;;5021566;28;20056;-76
2023/06/20 13:07:20;;;;;;;3.10;1.80;;;;;;;;;;5028238;28;20032;-76
2023/06/20 13:09:47;;;;;;;3.10;1.90;;;;;;;;;;5015567;28;20037;-76
2023/06/20 13:12:13;;;;;;;2.53;1.80;;;;;;;;;;5024053;28;20063;-76
2023/06/20 13:14:38;;;;;;;5.50;1.95;;;;;;;;;;5029488;28;20021;-76
2023/06/20 13:17:04;;;;;;;3.30;2.00;;;;;;;;;;5034983;28;20034;-77
2023/06/20 13:19:29;;;;;;;6.63;1.90;;;;;;;;;;5025915;28;20096;-76
2023/06/20 13:21:54;;;;;;;4.25;1.83;;;;;;;;;;5010898;28;20025;-76
2023/06/20 13:24:20;;;;;;;2.85;1.83;;;;;;;;;;5002742;28;20030;-76
2023/06/20 13:26:47;;;;;;;3.83;1.80;;;;;;;;;;5008885;28;20044;-76
2023/06/20 13:29:12;;;;;;;4.68;2.03;;;;;;;;;;5024136;28;20029;-75
2023/06/20 13:31:37;;;;;;;3.80;1.92;;;;;;;;;;5009126;28;20025;-76
2023/06/20 13:34:03;;;;;;;3.10;1.98;;;;;;;;;;5012094;28;20017;-76
2023/06/20 13:36:29;;;;;;;4.65;2.30;;;;;;;;;;5027149;28;20033;-76
2023/06/20 13:38:54;;;;;;;3.05;1.70;;;;;;;;;;5008503;28;20029;-76
2023/06/20 13:41:20;;;;;;;4.45;1.85;;;;;;;;;;5018528;28;20025;-76
2023/06/20 13:43:50;;;;;;;3.30;1.67;;;;;;;;;;5028560;28;20103;-76
2023/06/20 13:46:15;;;;;;;4.22;1.85;;;;;;;;;;5011366;28;20022;-76
2023/06/20 13:48:41;;;;;;;4.50;2.00;;;;;;;;;;5012352;28;20044;-77
2023/06/20 13:51:06;;;;;;;3.60;1.88;;;;;;;;;;5029058;28;20072;-76
2023/06/20 13:53:31;;;;;;;3.72;2.00;;;;;;;;;;5030603;28;20037;-76
2023/06/20 13:55:57;;;;;;;3.08;2.10;;;;;;;;;;5030897;28;20444;-77
2023/06/20 13:58:22;;;;;;;2.53;1.80;;;;;;;;;;5031835;28;20033;-77
2023/06/20 14:00:48;;;;;;;6.15;2.17;;;;;;;;;;5031731;28;20056;-76
2023/06/20 14:03:14;;;;;;;4.22;2.13;;;;;;;;;;5031390;28;20026;-76
2023/06/20 14:05:39;;;;;;;3.15;1.90;;;;;;;;;;5015354;28;20108;-76
2023/06/20 14:08:04;;;;;;;2.60;1.90;;;;;;;;;;5031704;28;20112;-76
2023/06/20 14:10:30;;;;;;;3.00;1.85;;;;;;;;;;5012457;28;20029;-77
2023/06/20 14:12:55;;;;;;;2.72;1.80;;;;;;;;;;5033217;28;20033;-77
2023/06/20 14:15:21;;;;;;;2.70;1.70;;;;;;;;;;5013108;28;20029;-76
2023/06/20 14:17:47;;;;;;;3.20;1.92;;;;;;;;;;5030820;28;20048;-76
2023/06/20 14:20:14;;;;;;;3.25;2.00;;;;;;;;;;5030531;28;20024;-76
2023/06/20 14:22:39;;;;;;;3.80;2.00;;;;;;;;;;5027796;28;20034;-76
2023/06/20 14:25:05;;;;;;;5.40;1.95;;;;;;;;;;5015257;28;20086;-76
2023/06/20 14:27:31;;;;;;;3.25;2.10;;;;;;;;;;5030290;28;20036;-76
2023/06/20 14:29:57;;;;;;;3.33;1.90;;;;;;;;;;5008792;28;20103;-76
2023/06/20 14:32:23;;;;;;;4.63;1.92;;;;;;;;;;5015732;28;20029;-77
2023/06/20 14:34:48;;;;;;;3.50;1.95;;;;;;;;;;5025989;28;20026;-77
2023/06/20 14:37:13;;;;;;;4.40;2.25;;;;;;;;;;5028908;28;20104;-75
2023/06/20 14:39:40;;;;;;;5.43;1.90;;;;;;;;;;5029943;28;20038;-77
2023/06/20 14:42:06;;;;;;;2.78;1.83;;;;;;;;;;5010295;28;20025;-77
2023/06/20 14:44:31;;;;;;;3.13;2.00;;;;;;;;;;5026228;28;20033;-77